sensor_id;sensor_type;location;lat;lon;timestamp;P1;durP1;ratioP1;P2;durP2;ratioP2
58302;SDS011;44109;52.398;7.024;2023-03-03T00:00:21;44.10;;;22.23;;
58302;SDS011;44109;52.398;7.024;2023-03-03T00:02:49;52.47;;;23.65;;
58302;SDS011;44109;52.398;7.024;2023-03-03T00:05:17;46.15;;;21.77;;
58302;SDS011;44109;52.398;7.024;2023-03-03T00:07:45;43.53;;;22.25;;
58302;SDS011;44109;52.398;7.024;2023-03-03T00:10:13;47.25;;;22.63;;
58302;SDS011;44109;52.398;7.024;2023-03-03T00:12:45;45.58;;;22.63;;
58302;SDS011;44109;52.398;7.024;2023-03-03T00:15:17;43.22;;;20.40;;
58302;SDS011;44109;52.398;7.024;2023-03-03T00:17:47;40.45;;;21.13;;
58302;SDS011;44109;52.398;7.024;2023-03-03T00:20:25;45.78;;;22.38;;
58302;SDS011;44109;52.398;7.024;2023-03-03T00:23:03;48.30;;;22.50;;
58302;SDS011;44109;52.398;7.024;2023-03-03T00:25:45;46.00;;;22.45;;
58302;SDS011;44109;52.398;7.024;2023-03-03T00:28:20;42.25;;;20.77;;
58302;SDS011;44109;52.398;7.024;2023-03-03T00:30:54;44.17;;;21.30;;
58302;SDS011;44109;52.398;7.024;2023-03-03T00:33:25;40.15;;;19.63;;
58302;SDS011;44109;52.398;7.024;2023-03-03T00:35:58;42.83;;;20.15;;
58302;SDS011;44109;52.398;7.024;2023-03-03T00:38:53;38.05;;;19.38;;
58302;SDS011;44109;52.398;7.024;2023-03-03T00:41:26;35.75;;;18.02;;
58302;SDS011;44109;52.398;7.024;2023-03-03T00:43:54;42.38;;;18.60;;
58302;SDS011;44109;52.398;7.024;2023-03-03T00:46:23;36.92;;;18.15;;
58302;SDS011;44109;52.398;7.024;2023-03-03T00:48:51;36.70;;;18.80;;
58302;SDS011;44109;52.398;7.024;2023-03-03T00:51:25;38.17;;;18.08;;
58302;SDS011;44109;52.398;7.024;2023-03-03T00:53:56;38.08;;;19.25;;
58302;SDS011;44109;52.398;7.024;2023-03-03T00:56:25;37.15;;;19.52;;
58302;SDS011;44109;52.398;7.024;2023-03-03T00:58:53;33.42;;;17.42;;
58302;SDS011;44109;52.398;7.024;2023-03-03T01:01:22;38.13;;;17.77;;
58302;SDS011;44109;52.398;7.024;2023-03-03T01:03:50;35.78;;;17.73;;
58302;SDS011;44109;52.398;7.024;2023-03-03T01:06:19;35.25;;;17.60;;
58302;SDS011;44109;52.398;7.024;2023-03-03T01:08:47;33.67;;;16.92;;
58302;SDS011;44109;52.398;7.024;2023-03-03T01:11:15;32.35;;;17.35;;
58302;SDS011;44109;52.398;7.024;2023-03-03T01:13:47;34.77;;;17.07;;
58302;SDS011;44109;52.398;7.024;2023-03-03T01:16:18;33.85;;;17.48;;
58302;SDS011;44109;52.398;7.024;2023-03-03T01:18:48;34.45;;;17.85;;
58302;SDS011;44109;52.398;7.024;2023-03-03T01:21:17;31.55;;;16.75;;
58302;SDS011;44109;52.398;7.024;2023-03-03T01:23:44;33.88;;;17.30;;
58302;SDS011;44109;52.398;7.024;2023-03-03T01:26:12;38.85;;;19.83;;
58302;SDS011;44109;52.398;7.024;2023-03-03T01:28:40;36.92;;;18.42;;
58302;SDS011;44109;52.398;7.024;2023-03-03T01:31:07;29.67;;;15.70;;
58302;SDS011;44109;52.398;7.024;2023-03-03T01:33:35;32.30;;;16.75;;
58302;SDS011;44109;52.398;7.024;2023-03-03T01:36:06;30.45;;;16.38;;
58302;SDS011;44109;52.398;7.024;2023-03-03T01:38:34;30.35;;;15.38;;
58302;SDS011;44109;52.398;7.024;2023-03-03T01:41:02;28.70;;;14.73;;
58302;SDS011;44109;52.398;7.024;2023-03-03T01:43:30;35.55;;;17.70;;
58302;SDS011;44109;52.398;7.024;2023-03-03T01:49:09;27.73;;;14.38;;
58302;SDS011;44109;52.398;7.024;2023-03-03T01:51:44;27.73;;;14.98;;
58302;SDS011;44109;52.398;7.024;2023-03-03T01:54:19;33.75;;;17.98;;
58302;SDS011;44109;52.398;7.024;2023-03-03T01:56:54;43.08;;;21.15;;
58302;SDS011;44109;52.398;7.024;2023-03-03T01:59:28;37.28;;;18.25;;
58302;SDS011;44109;52.398;7.024;2023-03-03T02:02:03;37.10;;;18.27;;
58302;SDS011;44109;52.398;7.024;2023-03-03T02:04:31;44.92;;;23.98;;
58302;SDS011;44109;52.398;7.024;2023-03-03T02:07:04;50.15;;;25.55;;
58302;SDS011;44109;52.398;7.024;2023-03-03T02:09:37;53.65;;;26.00;;
58302;SDS011;44109;52.398;7.024;2023-03-03T02:12:15;56.28;;;26.42;;
58302;SDS011;44109;52.398;7.024;2023-03-03T02:14:46;56.03;;;25.27;;
58302;SDS011;44109;52.398;7.024;2023-03-03T02:17:13;56.22;;;26.13;;
58302;SDS011;44109;52.398;7.024;2023-03-03T02:19:45;57.47;;;26.65;;
58302;SDS011;44109;52.398;7.024;2023-03-03T02:22:26;52.65;;;23.50;;
58302;SDS011;44109;52.398;7.024;2023-03-03T02:25:07;46.17;;;21.73;;
58302;SDS011;44109;52.398;7.024;2023-03-03T02:27:47;47.42;;;22.27;;
58302;SDS011;44109;52.398;7.024;2023-03-03T02:30:16;47.35;;;21.42;;
58302;SDS011;44109;52.398;7.024;2023-03-03T02:32:47;42.80;;;19.63;;
58302;SDS011;44109;52.398;7.024;2023-03-03T02:35:25;36.90;;;19.67;;
58302;SDS011;44109;52.398;7.024;2023-03-03T02:37:58;40.35;;;19.73;;
58302;SDS011;44109;52.398;7.024;2023-03-03T02:40:36;33.33;;;16.17;;
58302;SDS011;44109;52.398;7.024;2023-03-03T02:43:11;33.05;;;16.73;;
58302;SDS011;44109;52.398;7.024;2023-03-03T02:45:43;38.10;;;19.65;;
58302;SDS011;44109;52.398;7.024;2023-03-03T02:48:11;33.05;;;17.73;;
58302;SDS011;44109;52.398;7.024;2023-03-03T02:50:39;33.92;;;16.95;;
58302;SDS011;44109;52.398;7.024;2023-03-03T02:53:06;30.10;;;15.73;;
58302;SDS011;44109;52.398;7.024;2023-03-03T02:55:34;30.63;;;15.80;;
58302;SDS011;44109;52.398;7.024;2023-03-03T02:58:02;27.15;;;16.10;;
58302;SDS011;44109;52.398;7.024;2023-03-03T03:00:31;31.38;;;16.10;;
58302;SDS011;44109;52.398;7.024;2023-03-03T03:02:58;35.78;;;17.85;;
58302;SDS011;44109;52.398;7.024;2023-03-03T03:05:26;27.30;;;15.57;;
58302;SDS011;44109;52.398;7.024;2023-03-03T03:07:54;26.33;;;15.15;;
58302;SDS011;44109;52.398;7.024;2023-03-03T03:10:21;29.13;;;15.82;;
58302;SDS011;44109;52.398;7.024;2023-03-03T03:12:49;30.02;;;15.77;;
58302;SDS011;44109;52.398;7.024;2023-03-03T03:15:17;35.65;;;16.85;;
58302;SDS011;44109;52.398;7.024;2023-03-03T03:17:46;28.02;;;15.00;;
58302;SDS011;44109;52.398;7.024;2023-03-03T03:20:13;32.53;;;17.35;;
58302;SDS011;44109;52.398;7.024;2023-03-03T03:22:42;31.02;;;17.58;;
58302;SDS011;44109;52.398;7.024;2023-03-03T03:25:09;31.42;;;15.98;;
58302;SDS011;44109;52.398;7.024;2023-03-03T03:27:37;30.45;;;16.13;;
58302;SDS011;44109;52.398;7.024;2023-03-03T03:30:05;28.80;;;16.02;;
58302;SDS011;44109;52.398;7.024;2023-03-03T03:32:34;29.63;;;14.75;;
58302;SDS011;44109;52.398;7.024;2023-03-03T03:35:03;27.58;;;14.82;;
58302;SDS011;44109;52.398;7.024;2023-03-03T03:37:32;26.75;;;14.60;;
58302;SDS011;44109;52.398;7.024;2023-03-03T03:40:00;28.80;;;14.68;;
58302;SDS011;44109;52.398;7.024;2023-03-03T03:42:27;27.30;;;14.60;;
58302;SDS011;44109;52.398;7.024;2023-03-03T03:44:55;31.13;;;17.25;;
58302;SDS011;44109;52.398;7.024;2023-03-03T03:47:22;30.45;;;17.13;;
58302;SDS011;44109;52.398;7.024;2023-03-03T03:49:50;29.52;;;16.42;;
58302;SDS011;44109;52.398;7.024;2023-03-03T03:52:19;28.08;;;14.60;;
58302;SDS011;44109;52.398;7.024;2023-03-03T03:54:47;33.28;;;18.20;;
58302;SDS011;44109;52.398;7.024;2023-03-03T03:57:15;29.15;;;15.15;;
58302;SDS011;44109;52.398;7.024;2023-03-03T03:59:42;34.10;;;16.55;;
58302;SDS011;44109;52.398;7.024;2023-03-03T04:02:10;32.58;;;16.38;;
58302;SDS011;44109;52.398;7.024;2023-03-03T04:04:38;33.63;;;17.75;;
58302;SDS011;44109;52.398;7.024;2023-03-03T04:07:05;36.25;;;17.85;;
58302;SDS011;44109;52.398;7.024;2023-03-03T04:09:34;31.00;;;16.65;;
58302;SDS011;44109;52.398;7.024;2023-03-03T04:12:02;36.13;;;17.20;;
58302;SDS011;44109;52.398;7.024;2023-03-03T04:14:30;41.75;;;20.08;;
58302;SDS011;44109;52.398;7.024;2023-03-03T04:16:58;42.58;;;19.98;;
58302;SDS011;44109;52.398;7.024;2023-03-03T04:19:25;42.67;;;20.40;;
58302;SDS011;44109;52.398;7.024;2023-03-03T04:21:53;44.47;;;19.77;;
58302;SDS011;44109;52.398;7.024;2023-03-03T04:24:21;41.67;;;20.40;;
58302;SDS011;44109;52.398;7.024;2023-03-03T04:26:50;42.88;;;18.70;;
58302;SDS011;44109;52.398;7.024;2023-03-03T04:29:18;49.97;;;20.15;;
58302;SDS011;44109;52.398;7.024;2023-03-03T04:31:45;38.42;;;18.83;;
58302;SDS011;44109;52.398;7.024;2023-03-03T04:34:13;36.55;;;17.80;;
58302;SDS011;44109;52.398;7.024;2023-03-03T04:36:40;36.92;;;18.52;;
58302;SDS011;44109;52.398;7.024;2023-03-03T04:39:08;35.20;;;19.10;;
58302;SDS011;44109;52.398;7.024;2023-03-03T04:41:35;38.97;;;20.35;;
58302;SDS011;44109;52.398;7.024;2023-03-03T04:44:04;36.25;;;19.10;;
58302;SDS011;44109;52.398;7.024;2023-03-03T04:46:33;35.80;;;16.98;;
58302;SDS011;44109;52.398;7.024;2023-03-03T04:49:00;27.38;;;13.98;;
58302;SDS011;44109;52.398;7.024;2023-03-03T04:51:28;30.60;;;15.68;;
58302;SDS011;44109;52.398;7.024;2023-03-03T04:53:56;26.55;;;15.02;;
58302;SDS011;44109;52.398;7.024;2023-03-03T04:56:24;37.72;;;17.50;;
58302;SDS011;44109;52.398;7.024;2023-03-03T04:58:51;32.33;;;16.63;;
58302;SDS011;44109;52.398;7.024;2023-03-03T05:01:20;33.47;;;17.33;;
58302;SDS011;44109;52.398;7.024;2023-03-03T05:03:48;30.50;;;14.82;;
58302;SDS011;44109;52.398;7.024;2023-03-03T05:06:16;34.47;;;15.63;;
58302;SDS011;44109;52.398;7.024;2023-03-03T05:08:43;33.08;;;16.85;;
58302;SDS011;44109;52.398;7.024;2023-03-03T05:11:12;33.05;;;18.02;;
58302;SDS011;44109;52.398;7.024;2023-03-03T05:13:39;36.47;;;17.50;;
58302;SDS011;44109;52.398;7.024;2023-03-03T05:16:07;33.88;;;17.00;;
58302;SDS011;44109;52.398;7.024;2023-03-03T05:18:36;34.65;;;17.60;;
58302;SDS011;44109;52.398;7.024;2023-03-03T05:21:04;30.83;;;14.82;;
58302;SDS011;44109;52.398;7.024;2023-03-03T05:23:32;34.15;;;16.35;;
58302;SDS011;44109;52.398;7.024;2023-03-03T05:25:59;31.80;;;14.45;;
58302;SDS011;44109;52.398;7.024;2023-03-03T05:28:27;35.42;;;17.30;;
58302;SDS011;44109;52.398;7.024;2023-03-03T05:30:55;28.63;;;14.40;;
58302;SDS011;44109;52.398;7.024;2023-03-03T05:33:22;31.63;;;14.65;;
58302;SDS011;44109;52.398;7.024;2023-03-03T05:35:53;33.38;;;15.63;;
58302;SDS011;44109;52.398;7.024;2023-03-03T05:38:23;31.42;;;13.60;;
58302;SDS011;44109;52.398;7.024;2023-03-03T05:40:51;28.98;;;13.82;;
58302;SDS011;44109;52.398;7.024;2023-03-03T05:43:19;31.45;;;15.38;;
58302;SDS011;44109;52.398;7.024;2023-03-03T05:45:47;30.05;;;14.75;;
58302;SDS011;44109;52.398;7.024;2023-03-03T05:48:21;29.13;;;15.38;;
58302;SDS011;44109;52.398;7.024;2023-03-03T05:50:49;28.05;;;13.40;;
58302;SDS011;44109;52.398;7.024;2023-03-03T05:53:18;34.15;;;15.38;;
58302;SDS011;44109;52.398;7.024;2023-03-03T05:55:45;30.92;;;14.20;;
58302;SDS011;44109;52.398;7.024;2023-03-03T05:58:13;31.27;;;14.73;;
58302;SDS011;44109;52.398;7.024;2023-03-03T06:00:41;30.63;;;14.05;;
58302;SDS011;44109;52.398;7.024;2023-03-03T06:03:08;27.23;;;13.70;;
58302;SDS011;44109;52.398;7.024;2023-03-03T06:05:36;28.15;;;14.75;;
58302;SDS011;44109;52.398;7.024;2023-03-03T06:08:04;30.27;;;14.05;;
58302;SDS011;44109;52.398;7.024;2023-03-03T06:10:33;31.25;;;14.38;;
58302;SDS011;44109;52.398;7.024;2023-03-03T06:13:01;27.27;;;13.55;;
58302;SDS011;44109;52.398;7.024;2023-03-03T06:15:28;29.90;;;13.88;;
58302;SDS011;44109;52.398;7.024;2023-03-03T06:17:56;30.80;;;15.23;;
58302;SDS011;44109;52.398;7.024;2023-03-03T06:20:24;26.88;;;13.52;;
58302;SDS011;44109;52.398;7.024;2023-03-03T06:22:51;30.17;;;14.43;;
58302;SDS011;44109;52.398;7.024;2023-03-03T06:25:19;28.00;;;13.35;;
58302;SDS011;44109;52.398;7.024;2023-03-03T06:27:48;27.95;;;12.27;;
58302;SDS011;44109;52.398;7.024;2023-03-03T06:30:16;25.30;;;11.57;;
58302;SDS011;44109;52.398;7.024;2023-03-03T06:32:44;28.80;;;12.50;;
58302;SDS011;44109;52.398;7.024;2023-03-03T06:35:12;28.90;;;12.80;;
58302;SDS011;44109;52.398;7.024;2023-03-03T06:37:40;29.02;;;13.60;;
58302;SDS011;44109;52.398;7.024;2023-03-03T06:40:08;25.67;;;12.80;;
58302;SDS011;44109;52.398;7.024;2023-03-03T06:42:37;24.73;;;12.93;;
58302;SDS011;44109;52.398;7.024;2023-03-03T06:45:06;27.45;;;13.20;;
58302;SDS011;44109;52.398;7.024;2023-03-03T06:47:35;29.58;;;13.48;;
58302;SDS011;44109;52.398;7.024;2023-03-03T06:50:03;35.30;;;14.45;;
58302;SDS011;44109;52.398;7.024;2023-03-03T06:52:31;24.83;;;13.07;;
58302;SDS011;44109;52.398;7.024;2023-03-03T06:55:00;28.48;;;14.40;;
58302;SDS011;44109;52.398;7.024;2023-03-03T06:57:38;29.73;;;12.82;;
58302;SDS011;44109;52.398;7.024;2023-03-03T07:00:16;25.63;;;14.20;;
58302;SDS011;44109;52.398;7.024;2023-03-03T07:02:50;27.80;;;15.77;;
58302;SDS011;44109;52.398;7.024;2023-03-03T07:05:25;27.73;;;14.30;;
58302;SDS011;44109;52.398;7.024;2023-03-03T07:07:55;25.02;;;12.57;;
58302;SDS011;44109;52.398;7.024;2023-03-03T07:10:24;32.00;;;14.77;;
58302;SDS011;44109;52.398;7.024;2023-03-03T07:12:55;30.33;;;14.23;;
58302;SDS011;44109;52.398;7.024;2023-03-03T07:15:46;26.02;;;13.95;;
58302;SDS011;44109;52.398;7.024;2023-03-03T07:18:30;31.42;;;12.38;;
58302;SDS011;44109;52.398;7.024;2023-03-03T07:21:07;26.23;;;12.25;;
58302;SDS011;44109;52.398;7.024;2023-03-03T07:23:43;25.05;;;13.25;;
58302;SDS011;44109;52.398;7.024;2023-03-03T07:26:14;26.52;;;13.68;;
58302;SDS011;44109;52.398;7.024;2023-03-03T07:28:47;28.95;;;13.07;;
58302;SDS011;44109;52.398;7.024;2023-03-03T07:31:28;27.35;;;12.55;;
58302;SDS011;44109;52.398;7.024;2023-03-03T07:34:13;24.50;;;11.52;;
58302;SDS011;44109;52.398;7.024;2023-03-03T07:36:46;25.08;;;12.02;;
58302;SDS011;44109;52.398;7.024;2023-03-03T07:39:22;26.83;;;11.90;;
58302;SDS011;44109;52.398;7.024;2023-03-03T07:42:02;22.00;;;10.85;;
58302;SDS011;44109;52.398;7.024;2023-03-03T07:44:44;22.98;;;11.10;;
58302;SDS011;44109;52.398;7.024;2023-03-03T07:47:21;21.20;;;11.00;;
58302;SDS011;44109;52.398;7.024;2023-03-03T07:49:53;23.38;;;11.15;;
58302;SDS011;44109;52.398;7.024;2023-03-03T07:52:24;22.67;;;11.40;;
58302;SDS011;44109;52.398;7.024;2023-03-03T07:54:57;26.08;;;12.85;;
58302;SDS011;44109;52.398;7.024;2023-03-03T07:57:45;27.73;;;12.30;;
58302;SDS011;44109;52.398;7.024;2023-03-03T08:03:39;23.70;;;10.85;;
58302;SDS011;44109;52.398;7.024;2023-03-03T08:06:23;23.05;;;10.55;;
58302;SDS011;44109;52.398;7.024;2023-03-03T08:09:12;19.17;;;9.63;;
58302;SDS011;44109;52.398;7.024;2023-03-03T08:15:19;23.33;;;11.18;;
58302;SDS011;44109;52.398;7.024;2023-03-03T08:17:50;18.40;;;9.18;;
58302;SDS011;44109;52.398;7.024;2023-03-03T08:20:42;22.33;;;11.32;;
58302;SDS011;44109;52.398;7.024;2023-03-03T08:23:14;21.33;;;9.75;;
58302;SDS011;44109;52.398;7.024;2023-03-03T08:25:43;23.73;;;11.30;;
58302;SDS011;44109;52.398;7.024;2023-03-03T08:28:12;21.52;;;10.73;;
58302;SDS011;44109;52.398;7.024;2023-03-03T08:30:40;23.42;;;11.52;;
58302;SDS011;44109;52.398;7.024;2023-03-03T08:33:09;20.77;;;10.38;;
58302;SDS011;44109;52.398;7.024;2023-03-03T08:35:38;21.20;;;10.02;;
58302;SDS011;44109;52.398;7.024;2023-03-03T08:38:07;21.40;;;9.90;;
58302;SDS011;44109;52.398;7.024;2023-03-03T08:40:36;20.95;;;9.68;;
58302;SDS011;44109;52.398;7.024;2023-03-03T08:43:04;19.27;;;9.65;;
58302;SDS011;44109;52.398;7.024;2023-03-03T08:45:32;19.38;;;9.35;;
58302;SDS011;44109;52.398;7.024;2023-03-03T08:48:01;21.70;;;9.45;;
58302;SDS011;44109;52.398;7.024;2023-03-03T08:50:29;18.15;;;9.77;;
58302;SDS011;44109;52.398;7.024;2023-03-03T08:52:57;19.13;;;11.48;;
58302;SDS011;44109;52.398;7.024;2023-03-03T08:55:26;20.65;;;10.98;;
58302;SDS011;44109;52.398;7.024;2023-03-03T08:57:53;18.70;;;9.63;;
58302;SDS011;44109;52.398;7.024;2023-03-03T09:00:21;20.83;;;9.73;;
58302;SDS011;44109;52.398;7.024;2023-03-03T09:02:51;20.70;;;9.75;;
58302;SDS011;44109;52.398;7.024;2023-03-03T09:05:20;21.67;;;9.60;;
58302;SDS011;44109;52.398;7.024;2023-03-03T09:07:51;22.55;;;10.68;;
58302;SDS011;44109;52.398;7.024;2023-03-03T09:10:21;21.02;;;10.90;;
58302;SDS011;44109;52.398;7.024;2023-03-03T09:12:57;22.25;;;9.80;;
58302;SDS011;44109;52.398;7.024;2023-03-03T09:15:29;23.88;;;11.27;;
58302;SDS011;44109;52.398;7.024;2023-03-03T09:18:01;20.10;;;10.18;;
58302;SDS011;44109;52.398;7.024;2023-03-03T09:20:41;21.17;;;10.73;;
58302;SDS011;44109;52.398;7.024;2023-03-03T09:23:26;17.15;;;9.18;;
58302;SDS011;44109;52.398;7.024;2023-03-03T09:26:23;20.65;;;10.05;;
58302;SDS011;44109;52.398;7.024;2023-03-03T09:31:42;16.10;;;8.02;;
58302;SDS011;44109;52.398;7.024;2023-03-03T09:34:15;18.50;;;10.05;;
58302;SDS011;44109;52.398;7.024;2023-03-03T09:36:49;14.80;;;8.82;;
58302;SDS011;44109;52.398;7.024;2023-03-03T09:39:18;16.83;;;10.00;;
58302;SDS011;44109;52.398;7.024;2023-03-03T09:41:58;16.65;;;8.35;;
58302;SDS011;44109;52.398;7.024;2023-03-03T09:45:15;17.85;;;9.20;;
58302;SDS011;44109;52.398;7.024;2023-03-03T09:48:28;20.65;;;10.25;;
58302;SDS011;44109;52.398;7.024;2023-03-03T09:51:26;18.33;;;9.93;;
58302;SDS011;44109;52.398;7.024;2023-03-03T09:54:16;22.98;;;10.20;;
58302;SDS011;44109;52.398;7.024;2023-03-03T09:57:02;22.23;;;10.38;;
58302;SDS011;44109;52.398;7.024;2023-03-03T10:03:00;19.70;;;9.27;;
58302;SDS011;44109;52.398;7.024;2023-03-03T10:05:52;20.17;;;9.93;;
58302;SDS011;44109;52.398;7.024;2023-03-03T10:08:31;16.98;;;9.75;;
58302;SDS011;44109;52.398;7.024;2023-03-03T10:11:21;17.25;;;10.13;;
58302;SDS011;44109;52.398;7.024;2023-03-03T10:14:14;16.45;;;9.45;;
58302;SDS011;44109;52.398;7.024;2023-03-03T10:17:14;14.63;;;7.85;;
58302;SDS011;44109;52.398;7.024;2023-03-03T10:20:02;17.23;;;8.50;;
58302;SDS011;44109;52.398;7.024;2023-03-03T10:22:48;13.35;;;8.10;;
58302;SDS011;44109;52.398;7.024;2023-03-03T10:25:24;16.77;;;8.98;;
58302;SDS011;44109;52.398;7.024;2023-03-03T10:28:18;19.90;;;8.38;;
58302;SDS011;44109;52.398;7.024;2023-03-03T10:31:32;13.18;;;6.93;;
58302;SDS011;44109;52.398;7.024;2023-03-03T10:34:23;14.15;;;7.25;;
58302;SDS011;44109;52.398;7.024;2023-03-03T10:37:17;12.27;;;7.15;;
58302;SDS011;44109;52.398;7.024;2023-03-03T10:40:00;11.13;;;6.45;;
58302;SDS011;44109;52.398;7.024;2023-03-03T10:42:47;13.63;;;7.57;;
58302;SDS011;44109;52.398;7.024;2023-03-03T10:45:51;16.08;;;8.27;;
58302;SDS011;44109;52.398;7.024;2023-03-03T10:48:57;17.02;;;8.80;;
58302;SDS011;44109;52.398;7.024;2023-03-03T10:51:47;15.27;;;8.73;;
58302;SDS011;44109;52.398;7.024;2023-03-03T10:54:40;12.48;;;6.70;;
58302;SDS011;44109;52.398;7.024;2023-03-03T10:57:30;13.55;;;7.78;;
58302;SDS011;44109;52.398;7.024;2023-03-03T11:00:15;12.40;;;6.68;;
58302;SDS011;44109;52.398;7.024;2023-03-03T11:02:54;15.75;;;7.47;;
58302;SDS011;44109;52.398;7.024;2023-03-03T11:06:02;11.20;;;6.82;;
58302;SDS011;44109;52.398;7.024;2023-03-03T11:08:37;13.27;;;6.63;;
58302;SDS011;44109;52.398;7.024;2023-03-03T11:11:13;13.70;;;7.75;;
58302;SDS011;44109;52.398;7.024;2023-03-03T11:13:53;14.70;;;7.43;;
58302;SDS011;44109;52.398;7.024;2023-03-03T11:16:36;10.65;;;6.28;;
58302;SDS011;44109;52.398;7.024;2023-03-03T11:19:23;12.65;;;6.72;;
58302;SDS011;44109;52.398;7.024;2023-03-03T11:22:16;11.27;;;5.80;;
58302;SDS011;44109;52.398;7.024;2023-03-03T11:25:02;7.97;;;5.32;;
58302;SDS011;44109;52.398;7.024;2023-03-03T11:27:59;10.10;;;5.55;;
58302;SDS011;44109;52.398;7.024;2023-03-03T11:30:52;10.93;;;5.32;;
58302;SDS011;44109;52.398;7.024;2023-03-03T11:33:38;9.18;;;5.45;;
58302;SDS011;44109;52.398;7.024;2023-03-03T11:36:17;9.88;;;5.50;;
58302;SDS011;44109;52.398;7.024;2023-03-03T11:38:53;8.45;;;5.00;;
58302;SDS011;44109;52.398;7.024;2023-03-03T11:41:29;11.60;;;5.57;;
58302;SDS011;44109;52.398;7.024;2023-03-03T11:44:07;8.90;;;5.00;;
58302;SDS011;44109;52.398;7.024;2023-03-03T11:46:45;9.85;;;5.07;;
58302;SDS011;44109;52.398;7.024;2023-03-03T11:49:20;9.18;;;4.32;;
58302;SDS011;44109;52.398;7.024;2023-03-03T11:52:01;8.13;;;4.07;;
58302;SDS011;44109;52.398;7.024;2023-03-03T11:54:45;8.93;;;4.22;;
58302;SDS011;44109;52.398;7.024;2023-03-03T11:57:22;7.97;;;4.30;;
58302;SDS011;44109;52.398;7.024;2023-03-03T12:00:03;6.15;;;4.18;;
58302;SDS011;44109;52.398;7.024;2023-03-03T12:02:58;6.00;;;3.47;;
58302;SDS011;44109;52.398;7.024;2023-03-03T12:05:47;6.80;;;3.45;;
58302;SDS011;44109;52.398;7.024;2023-03-03T12:08:25;6.15;;;3.05;;
58302;SDS011;44109;52.398;7.024;2023-03-03T12:11:10;5.78;;;3.63;;
58302;SDS011;44109;52.398;7.024;2023-03-03T12:13:55;5.10;;;2.70;;
58302;SDS011;44109;52.398;7.024;2023-03-03T12:16:37;4.97;;;3.28;;
58302;SDS011;44109;52.398;7.024;2023-03-03T12:19:19;5.53;;;2.88;;
58302;SDS011;44109;52.398;7.024;2023-03-03T12:22:14;5.00;;;2.70;;
58302;SDS011;44109;52.398;7.024;2023-03-03T12:25:01;4.13;;;2.53;;
58302;SDS011;44109;52.398;7.024;2023-03-03T12:27:53;6.57;;;3.70;;
58302;SDS011;44109;52.398;7.024;2023-03-03T12:33:50;4.90;;;3.28;;
58302;SDS011;44109;52.398;7.024;2023-03-03T12:36:43;5.47;;;2.97;;
58302;SDS011;44109;52.398;7.024;2023-03-03T12:39:43;6.10;;;2.95;;
58302;SDS011;44109;52.398;7.024;2023-03-03T12:42:27;4.97;;;3.00;;
58302;SDS011;44109;52.398;7.024;2023-03-03T12:45:13;5.30;;;2.55;;
58302;SDS011;44109;52.398;7.024;2023-03-03T12:48:00;5.20;;;2.60;;
58302;SDS011;44109;52.398;7.024;2023-03-03T12:50:40;3.17;;;1.92;;
58302;SDS011;44109;52.398;7.024;2023-03-03T12:53:24;2.88;;;1.95;;
58302;SDS011;44109;52.398;7.024;2023-03-03T12:56:18;5.80;;;2.97;;
58302;SDS011;44109;52.398;7.024;2023-03-03T12:58:59;5.55;;;2.90;;
58302;SDS011;44109;52.398;7.024;2023-03-03T13:01:39;14.95;;;7.70;;
58302;SDS011;44109;52.398;7.024;2023-03-03T13:04:30;14.15;;;5.68;;
58302;SDS011;44109;52.398;7.024;2023-03-03T13:07:06;6.00;;;2.67;;
58302;SDS011;44109;52.398;7.024;2023-03-03T13:09:52;12.18;;;5.15;;
58302;SDS011;44109;52.398;7.024;2023-03-03T13:12:36;5.93;;;2.90;;
58302;SDS011;44109;52.398;7.024;2023-03-03T13:15:15;8.07;;;4.53;;
58302;SDS011;44109;52.398;7.024;2023-03-03T13:17:52;20.45;;;8.82;;
58302;SDS011;44109;52.398;7.024;2023-03-03T13:20:39;6.38;;;3.17;;
58302;SDS011;44109;52.398;7.024;2023-03-03T13:23:18;5.15;;;2.35;;
58302;SDS011;44109;52.398;7.024;2023-03-03T13:26:05;4.82;;;2.83;;
58302;SDS011;44109;52.398;7.024;2023-03-03T13:28:41;6.50;;;2.83;;
58302;SDS011;44109;52.398;7.024;2023-03-03T13:31:30;5.07;;;2.53;;
58302;SDS011;44109;52.398;7.024;2023-03-03T13:34:06;4.95;;;3.47;;
58302;SDS011;44109;52.398;7.024;2023-03-03T13:36:45;4.10;;;2.20;;
58302;SDS011;44109;52.398;7.024;2023-03-03T13:39:24;4.32;;;2.55;;
58302;SDS011;44109;52.398;7.024;2023-03-03T13:41:59;4.55;;;2.65;;
58302;SDS011;44109;52.398;7.024;2023-03-03T13:44:33;5.47;;;2.90;;
58302;SDS011;44109;52.398;7.024;2023-03-03T13:47:11;6.97;;;2.97;;
58302;SDS011;44109;52.398;7.024;2023-03-03T13:49:53;5.18;;;3.22;;
58302;SDS011;44109;52.398;7.024;2023-03-03T13:52:39;6.60;;;2.70;;
58302;SDS011;44109;52.398;7.024;2023-03-03T13:55:24;4.90;;;2.90;;
58302;SDS011;44109;52.398;7.024;2023-03-03T13:58:03;6.43;;;3.00;;
58302;SDS011;44109;52.398;7.024;2023-03-03T14:00:52;5.85;;;3.00;;
58302;SDS011;44109;52.398;7.024;2023-03-03T14:03:35;5.70;;;3.53;;
58302;SDS011;44109;52.398;7.024;2023-03-03T14:06:26;6.03;;;3.00;;
58302;SDS011;44109;52.398;7.024;2023-03-03T14:11:58;6.13;;;3.35;;
58302;SDS011;44109;52.398;7.024;2023-03-03T14:14:43;7.10;;;3.15;;
58302;SDS011;44109;52.398;7.024;2023-03-03T14:17:24;6.05;;;3.38;;
58302;SDS011;44109;52.398;7.024;2023-03-03T14:20:02;7.32;;;3.42;;
58302;SDS011;44109;52.398;7.024;2023-03-03T14:22:45;7.18;;;3.60;;
58302;SDS011;44109;52.398;7.024;2023-03-03T14:25:24;6.60;;;3.25;;
58302;SDS011;44109;52.398;7.024;2023-03-03T14:27:59;6.18;;;3.65;;
58302;SDS011;44109;52.398;7.024;2023-03-03T14:30:37;6.85;;;3.58;;
58302;SDS011;44109;52.398;7.024;2023-03-03T14:33:20;7.10;;;4.35;;
58302;SDS011;44109;52.398;7.024;2023-03-03T14:36:01;7.82;;;3.40;;
58302;SDS011;44109;52.398;7.024;2023-03-03T14:38:38;6.30;;;3.42;;
58302;SDS011;44109;52.398;7.024;2023-03-03T14:41:16;6.32;;;3.25;;
58302;SDS011;44109;52.398;7.024;2023-03-03T14:43:57;7.43;;;3.97;;
58302;SDS011;44109;52.398;7.024;2023-03-03T14:46:34;6.40;;;3.45;;
58302;SDS011;44109;52.398;7.024;2023-03-03T14:49:06;6.65;;;3.17;;
58302;SDS011;44109;52.398;7.024;2023-03-03T14:51:52;5.18;;;3.13;;
58302;SDS011;44109;52.398;7.024;2023-03-03T14:54:28;6.25;;;3.45;;
58302;SDS011;44109;52.398;7.024;2023-03-03T14:57:10;5.93;;;2.70;;
58302;SDS011;44109;52.398;7.024;2023-03-03T14:59:53;7.85;;;2.55;;
58302;SDS011;44109;52.398;7.024;2023-03-03T15:02:31;6.18;;;2.50;;
58302;SDS011;44109;52.398;7.024;2023-03-03T15:05:15;4.15;;;2.28;;
58302;SDS011;44109;52.398;7.024;2023-03-03T15:07:50;4.20;;;1.83;;
58302;SDS011;44109;52.398;7.024;2023-03-03T15:10:28;8.43;;;2.97;;
58302;SDS011;44109;52.398;7.024;2023-03-03T15:13:11;4.60;;;2.05;;
58302;SDS011;44109;52.398;7.024;2023-03-03T15:16:00;3.13;;;1.70;;
58302;SDS011;44109;52.398;7.024;2023-03-03T15:21:44;3.30;;;2.00;;
58302;SDS011;44109;52.398;7.024;2023-03-03T15:24:30;4.35;;;2.08;;
58302;SDS011;44109;52.398;7.024;2023-03-03T15:27:07;2.92;;;1.88;;
58302;SDS011;44109;52.398;7.024;2023-03-03T15:29:52;3.22;;;1.98;;
58302;SDS011;44109;52.398;7.024;2023-03-03T15:32:32;5.05;;;1.88;;
58302;SDS011;44109;52.398;7.024;2023-03-03T15:35:16;3.38;;;2.28;;
58302;SDS011;44109;52.398;7.024;2023-03-03T15:37:58;4.00;;;2.10;;
58302;SDS011;44109;52.398;7.024;2023-03-03T15:40:38;3.58;;;2.13;;
58302;SDS011;44109;52.398;7.024;2023-03-03T15:43:18;3.60;;;1.80;;
58302;SDS011;44109;52.398;7.024;2023-03-03T15:45:58;3.08;;;1.77;;